»·PEaware :: N313N KCMA-KSAC

N313N :: KCMA-KSAC

FLIGHT INFORMATION

Flight Status: Arrived
Operator: Privately registered:
United States
More flights under this callsign
Pilot: Damien O. (2415)
Aircraft: GULFSTREAM G-1159C GULFSTREAM 4
(GLF4)
More flights by this aircraft type
Origin: KCMA Camarillo
United States
Destination: KSAC Sacramento Executive
United States
More flights between these airports :: More routes between these airports
Route: GMN CZQ LIN
File this flight plan on PilotEdge
Remarks:
Altitude:
(Current/Filed)
28,000ft
Speed:
(Current/Filed)
350kts
Departed: 06-Nov-19 09:08 AM
Arrived: 06-Nov-19 10:07 AM
Distance/Time
Traveled:
283nm/0:59
Distance/Time
To Go:
Arrived

Flight Plot

Page will automatically refresh every two minutes.

Flight plan parsing failed; only flown route is shown


Map Options




Map Legend


Flown Route
Filed Route
Departure Airport
Arrival Airport
Navaid (VOR, NDB)
Fix

Horizontal Profiles

Position Reports

Time Latitude Longitude Heading Altitude Ground
Speed
06-Nov-19 08:56 34.210351 -119.076572 90 85ft 0kts
06-Nov-19 08:57 34.210351 -119.076572 90 85ft 0kts
06-Nov-19 08:58 34.210351 -119.076572 90 85ft 0kts
06-Nov-19 08:59 34.210351 -119.076572 90 85ft 0kts
06-Nov-19 09:00 34.210351 -119.076572 90 85ft 0kts
06-Nov-19 09:01 34.210351 -119.076572 90 85ft 0kts
06-Nov-19 09:02 34.210880 -119.078028 269 85ft 14kts
06-Nov-19 09:03 34.210931 -119.085148 269 85ft 21kts
06-Nov-19 09:04 34.210873 -119.088242 80 85ft 24kts
06-Nov-19 09:05 34.212957 -119.084634 358 85ft 0kts
06-Nov-19 09:06 34.212957 -119.084634 358 85ft 0kts
06-Nov-19 09:07 34.213893 -119.102812 270 245ft 213kts
06-Nov-19 09:08 34.230132 -119.174079 287 3646ft 230kts
06-Nov-19 09:09 34.225173 -119.259387 276 7163ft 275kts
06-Nov-19 09:10 34.285529 -119.288260 12 11230ft 293kts
06-Nov-19 09:11 34.386927 -119.260435 12 15341ft 394kts
06-Nov-19 09:12 34.495530 -119.230088 12 19354ft 412kts
06-Nov-19 09:13 34.609683 -119.197800 12 22929ft 435kts
06-Nov-19 09:14 34.727018 -119.164471 12 24490ft 438kts
06-Nov-19 09:15 34.847828 -119.129989 12 27089ft 454kts
06-Nov-19 09:16 34.971998 -119.094160 12 28101ft 462kts
06-Nov-19 09:17 35.096844 -119.081014 342 28125ft 459kts
06-Nov-19 09:18 35.217645 -119.129217 342 28112ft 458kts
06-Nov-19 09:19 35.338477 -119.177549 342 28110ft 458kts
06-Nov-19 09:20 35.459784 -119.226015 342 28113ft 458kts
06-Nov-19 09:21 35.580589 -119.274238 342 28117ft 457kts
06-Nov-19 09:22 35.697946 -119.321039 342 28116ft 457kts
06-Nov-19 09:23 35.818353 -119.369021 342 28115ft 457kts
06-Nov-19 09:24 35.939516 -119.417314 342 28119ft 457kts
06-Nov-19 09:25 36.060037 -119.465223 342 26681ft 449kts
06-Nov-19 09:26 36.175556 -119.510835 342 24897ft 438kts
06-Nov-19 09:27 36.290165 -119.555805 342 24130ft 433kts
06-Nov-19 09:28 36.405070 -119.600803 342 24127ft 433kts
06-Nov-19 09:29 36.519803 -119.645666 342 24117ft 434kts
06-Nov-19 09:30 36.630651 -119.689107 342 24057ft 435kts
06-Nov-19 09:31 36.741471 -119.732525 342 24073ft 435kts
06-Nov-19 09:32 36.849434 -119.774814 342 24113ft 435kts
06-Nov-19 09:33 36.950498 -119.846296 317 23885ft 401kts
06-Nov-19 09:34 37.024947 -119.936141 317 22029ft 353kts
06-Nov-19 09:35 37.095456 -120.021226 317 20239ft 354kts
06-Nov-19 09:36 37.168211 -120.108332 317 20119ft 418kts
06-Nov-19 09:37 37.241923 -120.192157 322 20117ft 415kts
06-Nov-19 09:38 37.320147 -120.269969 323 20793ft 416kts
06-Nov-19 09:39 37.404382 -120.354118 323 22458ft 426kts
06-Nov-19 09:40 37.488867 -120.438986 323 24093ft 434kts
06-Nov-19 09:41 37.570127 -120.520453 323 20841ft 421kts
06-Nov-19 09:42 37.646752 -120.596504 323 17789ft 392kts
06-Nov-19 09:43 37.715284 -120.663829 322 14897ft 373kts
06-Nov-19 09:44 37.775651 -120.722540 322 12276ft 360kts
06-Nov-19 09:45 37.807588 -120.753412 322 11989ft 321kts
06-Nov-19 09:46 37.822202 -120.767552 322 11983ft 311kts
06-Nov-19 09:47 37.882541 -120.825912 322 11995ft 324kts
06-Nov-19 09:48 37.941106 -120.882546 323 11997ft 324kts
06-Nov-19 09:49 37.995360 -120.934997 323 12128ft 321kts
06-Nov-19 09:50 38.047500 -120.985422 323 11570ft 324kts
06-Nov-19 09:51 38.097518 -121.033877 323 10099ft 302kts
06-Nov-19 09:52 38.140329 -121.075424 323 8774ft 288kts
06-Nov-19 09:53 38.182352 -121.116281 323 7994ft 241kts
06-Nov-19 09:54 38.221545 -121.154507 323 7991ft 250kts
06-Nov-19 09:55 38.264482 -121.196443 323 7983ft 248kts
06-Nov-19 09:56 38.307429 -121.238445 323 6901ft 221kts
06-Nov-19 09:57 38.349512 -121.279560 323 5148ft 220kts
06-Nov-19 09:58 38.399159 -121.305909 3 3398ft 202kts
06-Nov-19 09:59 38.447615 -121.302214 3 2992ft 203kts
06-Nov-19 10:00 38.497160 -121.298435 3 2989ft 204kts
06-Nov-19 10:01 38.540779 -121.318760 323 2991ft 204kts
06-Nov-19 10:02 38.561612 -121.366472 283 2996ft 184kts
06-Nov-19 10:03 38.567257 -121.418902 253 3377ft 156kts
06-Nov-19 10:04 38.549327 -121.457248 236 2292ft 164kts
06-Nov-19 10:05 38.521008 -121.487721 215 146ft 140kts
06-Nov-19 10:06 38.511361 -121.497462 270 31ft 8kts
06-Nov-19 10:07 38.513127 -121.497550 308 31ft 10kts
06-Nov-19 10:08 38.513174 -121.497681 285 31ft 0kts

Navigation Log

Ident Type
Flight plan parsing failed, navigation log unavailable